sensor_id;sensor_type;location;lat;lon;timestamp;P1;durP1;ratioP1;P2;durP2;ratioP2
35150;SDS011;55720;51.972;4.624;2022-10-13T17:15:31;8.15;;;7.00;;
35150;SDS011;55720;51.972;4.624;2022-10-13T17:17:57;9.02;;;7.72;;
35150;SDS011;55720;51.972;4.624;2022-10-13T17:20:22;10.05;;;7.82;;
35150;SDS011;55720;51.972;4.624;2022-10-13T17:22:47;10.63;;;8.57;;
35150;SDS011;55720;51.972;4.624;2022-10-13T17:25:13;9.80;;;8.63;;
35150;SDS011;55720;51.972;4.624;2022-10-13T17:27:38;9.27;;;8.48;;
35150;SDS011;55720;51.972;4.624;2022-10-13T17:30:04;11.00;;;8.65;;
35150;SDS011;55720;51.972;4.624;2022-10-13T17:32:30;9.75;;;8.85;;
35150;SDS011;55720;51.972;4.624;2022-10-13T17:35:00;9.15;;;8.23;;
35150;SDS011;55720;51.972;4.624;2022-10-13T17:37:25;9.82;;;8.48;;
35150;SDS011;55720;51.972;4.624;2022-10-13T17:39:51;9.65;;;8.75;;
35150;SDS011;55720;51.972;4.624;2022-10-13T17:42:16;11.90;;;8.80;;
35150;SDS011;55720;51.972;4.624;2022-10-13T17:44:42;9.70;;;8.80;;
35150;SDS011;55720;51.972;4.624;2022-10-13T17:47:07;8.40;;;7.60;;
35150;SDS011;55720;51.972;4.624;2022-10-13T17:49:33;9.50;;;8.60;;
35150;SDS011;55720;51.972;4.624;2022-10-13T17:51:58;13.18;;;9.13;;
35150;SDS011;55720;51.972;4.624;2022-10-13T17:54:23;9.80;;;8.93;;
35150;SDS011;55720;51.972;4.624;2022-10-13T17:56:49;11.05;;;9.57;;
35150;SDS011;55720;51.972;4.624;2022-10-13T17:59:15;13.25;;;10.15;;
35150;SDS011;55720;51.972;4.624;2022-10-13T18:01:42;12.32;;;10.32;;
35150;SDS011;55720;51.972;4.624;2022-10-13T18:04:12;12.73;;;10.85;;
35150;SDS011;55720;51.972;4.624;2022-10-13T18:06:39;11.02;;;10.02;;
35150;SDS011;55720;51.972;4.624;2022-10-13T18:09:17;12.48;;;10.25;;
35150;SDS011;55720;51.972;4.624;2022-10-13T18:11:45;11.70;;;10.45;;
35150;SDS011;55720;51.972;4.624;2022-10-13T18:14:11;11.95;;;10.00;;
35150;SDS011;55720;51.972;4.624;2022-10-13T18:16:37;13.15;;;10.77;;
35150;SDS011;55720;51.972;4.624;2022-10-13T18:19:03;13.30;;;10.60;;
35150;SDS011;55720;51.972;4.624;2022-10-13T18:21:29;14.20;;;11.15;;
35150;SDS011;55720;51.972;4.624;2022-10-13T18:23:55;12.52;;;11.23;;
35150;SDS011;55720;51.972;4.624;2022-10-13T18:26:22;16.65;;;11.25;;
35150;SDS011;55720;51.972;4.624;2022-10-13T18:28:48;12.88;;;11.48;;
35150;SDS011;55720;51.972;4.624;2022-10-13T18:31:24;14.20;;;10.80;;
35150;SDS011;55720;51.972;4.624;2022-10-13T18:33:55;12.00;;;10.75;;
35150;SDS011;55720;51.972;4.624;2022-10-13T18:36:26;12.90;;;10.75;;
35150;SDS011;55720;51.972;4.624;2022-10-13T18:38:54;16.00;;;11.52;;
35150;SDS011;55720;51.972;4.624;2022-10-13T18:43:49;12.48;;;10.00;;
35150;SDS011;55720;51.972;4.624;2022-10-13T18:46:15;14.70;;;10.80;;
35150;SDS011;55720;51.972;4.624;2022-10-13T18:48:41;16.58;;;10.73;;
35150;SDS011;55720;51.972;4.624;2022-10-13T18:51:10;16.02;;;11.35;;
35150;SDS011;55720;51.972;4.624;2022-10-13T18:53:38;17.67;;;10.10;;
35150;SDS011;55720;51.972;4.624;2022-10-13T18:56:09;14.10;;;10.50;;
35150;SDS011;55720;51.972;4.624;2022-10-13T18:58:37;17.38;;;10.73;;
35150;SDS011;55720;51.972;4.624;2022-10-13T19:01:04;16.60;;;11.45;;
35150;SDS011;55720;51.972;4.624;2022-10-13T19:03:32;14.93;;;10.90;;
35150;SDS011;55720;51.972;4.624;2022-10-13T19:05:58;17.05;;;11.98;;
35150;SDS011;55720;51.972;4.624;2022-10-13T19:08:24;18.17;;;11.75;;
35150;SDS011;55720;51.972;4.624;2022-10-13T19:10:50;15.02;;;11.30;;
35150;SDS011;55720;51.972;4.624;2022-10-13T19:13:15;16.80;;;11.05;;
35150;SDS011;55720;51.972;4.624;2022-10-13T19:15:41;22.02;;;11.20;;
35150;SDS011;55720;51.972;4.624;2022-10-13T19:18:06;15.18;;;11.57;;
35150;SDS011;55720;51.972;4.624;2022-10-13T19:20:32;19.65;;;12.15;;
35150;SDS011;55720;51.972;4.624;2022-10-13T19:22:58;17.92;;;12.02;;
35150;SDS011;55720;51.972;4.624;2022-10-13T19:25:23;20.83;;;12.32;;
35150;SDS011;55720;51.972;4.624;2022-10-13T19:27:49;19.42;;;12.35;;
35150;SDS011;55720;51.972;4.624;2022-10-13T19:30:16;19.00;;;12.30;;
35150;SDS011;55720;51.972;4.624;2022-10-13T19:32:42;17.60;;;11.82;;
35150;SDS011;55720;51.972;4.624;2022-10-13T19:35:08;25.88;;;13.07;;
35150;SDS011;55720;51.972;4.624;2022-10-13T19:37:33;23.30;;;13.70;;
35150;SDS011;55720;51.972;4.624;2022-10-13T19:40:00;20.48;;;13.68;;
35150;SDS011;55720;51.972;4.624;2022-10-13T19:42:26;18.40;;;12.43;;
35150;SDS011;55720;51.972;4.624;2022-10-13T19:44:52;18.95;;;12.27;;
35150;SDS011;55720;51.972;4.624;2022-10-13T19:47:17;21.10;;;12.40;;
35150;SDS011;55720;51.972;4.624;2022-10-13T19:49:42;19.98;;;13.13;;
35150;SDS011;55720;51.972;4.624;2022-10-13T19:52:08;19.98;;;13.45;;
35150;SDS011;55720;51.972;4.624;2022-10-13T19:54:34;21.45;;;12.80;;
35150;SDS011;55720;51.972;4.624;2022-10-13T19:57:01;22.08;;;12.73;;
35150;SDS011;55720;51.972;4.624;2022-10-13T19:59:26;20.08;;;12.68;;
35150;SDS011;55720;51.972;4.624;2022-10-13T20:01:52;18.23;;;12.23;;
35150;SDS011;55720;51.972;4.624;2022-10-13T20:04:18;20.75;;;13.43;;
35150;SDS011;55720;51.972;4.624;2022-10-13T20:06:44;20.92;;;12.60;;
35150;SDS011;55720;51.972;4.624;2022-10-13T20:09:13;24.23;;;13.13;;
35150;SDS011;55720;51.972;4.624;2022-10-13T20:11:39;21.20;;;12.65;;
35150;SDS011;55720;51.972;4.624;2022-10-13T20:14:05;19.35;;;12.70;;
35150;SDS011;55720;51.972;4.624;2022-10-13T20:16:30;22.75;;;12.80;;
35150;SDS011;55720;51.972;4.624;2022-10-13T20:18:57;21.63;;;12.85;;
35150;SDS011;55720;51.972;4.624;2022-10-13T20:21:24;23.20;;;13.20;;
35150;SDS011;55720;51.972;4.624;2022-10-13T20:23:50;19.48;;;11.88;;
35150;SDS011;55720;51.972;4.624;2022-10-13T20:26:16;21.08;;;12.80;;
35150;SDS011;55720;51.972;4.624;2022-10-13T20:28:43;20.08;;;12.70;;
35150;SDS011;55720;51.972;4.624;2022-10-13T20:31:13;19.40;;;12.52;;
35150;SDS011;55720;51.972;4.624;2022-10-13T20:33:40;19.25;;;13.68;;
35150;SDS011;55720;51.972;4.624;2022-10-13T20:36:07;18.23;;;12.85;;
35150;SDS011;55720;51.972;4.624;2022-10-13T20:38:35;22.90;;;13.27;;
35150;SDS011;55720;51.972;4.624;2022-10-13T20:41:34;23.73;;;13.57;;
35150;SDS011;55720;51.972;4.624;2022-10-13T20:43:54;18.55;;;12.55;;
35150;SDS011;55720;51.972;4.624;2022-10-13T20:46:21;25.85;;;14.52;;
35150;SDS011;55720;51.972;4.624;2022-10-13T20:48:50;19.98;;;13.23;;
35150;SDS011;55720;51.972;4.624;2022-10-13T20:51:18;20.48;;;13.13;;
35150;SDS011;55720;51.972;4.624;2022-10-13T20:53:45;19.30;;;13.65;;
35150;SDS011;55720;51.972;4.624;2022-10-13T20:56:13;21.45;;;13.60;;
35150;SDS011;55720;51.972;4.624;2022-10-13T20:58:40;19.20;;;12.80;;
35150;SDS011;55720;51.972;4.624;2022-10-13T21:01:06;22.23;;;14.23;;
35150;SDS011;55720;51.972;4.624;2022-10-13T21:03:33;21.95;;;14.38;;
35150;SDS011;55720;51.972;4.624;2022-10-13T21:06:00;20.25;;;13.55;;
35150;SDS011;55720;51.972;4.624;2022-10-13T21:08:27;24.58;;;14.13;;
35150;SDS011;55720;51.972;4.624;2022-10-13T21:10:52;25.50;;;13.88;;
35150;SDS011;55720;51.972;4.624;2022-10-13T21:13:18;18.27;;;12.95;;
35150;SDS011;55720;51.972;4.624;2022-10-13T21:15:43;20.42;;;13.48;;
35150;SDS011;55720;51.972;4.624;2022-10-13T21:18:10;19.95;;;14.30;;
35150;SDS011;55720;51.972;4.624;2022-10-13T21:20:37;20.05;;;13.50;;
35150;SDS011;55720;51.972;4.624;2022-10-13T21:23:03;24.15;;;14.20;;
35150;SDS011;55720;51.972;4.624;2022-10-13T21:25:30;21.40;;;13.52;;
35150;SDS011;55720;51.972;4.624;2022-10-13T21:27:58;17.92;;;13.90;;
35150;SDS011;55720;51.972;4.624;2022-10-13T21:30:23;19.23;;;13.40;;
35150;SDS011;55720;51.972;4.624;2022-10-13T21:32:49;19.92;;;13.60;;
35150;SDS011;55720;51.972;4.624;2022-10-13T21:35:14;16.23;;;12.30;;
35150;SDS011;55720;51.972;4.624;2022-10-13T21:37:40;22.50;;;13.15;;
35150;SDS011;55720;51.972;4.624;2022-10-13T21:40:06;18.98;;;12.50;;
35150;SDS011;55720;51.972;4.624;2022-10-13T21:42:32;16.00;;;12.75;;
35150;SDS011;55720;51.972;4.624;2022-10-13T21:44:58;17.35;;;13.00;;
35150;SDS011;55720;51.972;4.624;2022-10-13T21:47:23;24.23;;;13.95;;
35150;SDS011;55720;51.972;4.624;2022-10-13T21:49:53;21.83;;;14.77;;
35150;SDS011;55720;51.972;4.624;2022-10-13T21:52:18;19.10;;;13.10;;
35150;SDS011;55720;51.972;4.624;2022-10-13T21:54:44;26.15;;;13.93;;
35150;SDS011;55720;51.972;4.624;2022-10-13T21:57:09;21.75;;;13.65;;
35150;SDS011;55720;51.972;4.624;2022-10-13T21:59:34;23.13;;;14.55;;
35150;SDS011;55720;51.972;4.624;2022-10-13T22:02:00;22.40;;;14.10;;
35150;SDS011;55720;51.972;4.624;2022-10-13T22:04:25;21.83;;;14.82;;
35150;SDS011;55720;51.972;4.624;2022-10-13T22:06:50;21.92;;;14.80;;
35150;SDS011;55720;51.972;4.624;2022-10-13T22:09:16;24.77;;;15.52;;
35150;SDS011;55720;51.972;4.624;2022-10-13T22:11:41;24.92;;;15.63;;
35150;SDS011;55720;51.972;4.624;2022-10-13T22:14:07;23.65;;;13.80;;
35150;SDS011;55720;51.972;4.624;2022-10-13T22:16:34;25.23;;;15.25;;
35150;SDS011;55720;51.972;4.624;2022-10-13T22:19:02;24.90;;;14.90;;
35150;SDS011;55720;51.972;4.624;2022-10-13T22:21:29;30.08;;;16.50;;
35150;SDS011;55720;51.972;4.624;2022-10-13T22:23:56;27.58;;;16.10;;
35150;SDS011;55720;51.972;4.624;2022-10-13T22:26:24;27.38;;;14.82;;
35150;SDS011;55720;51.972;4.624;2022-10-13T22:28:51;27.05;;;16.02;;
35150;SDS011;55720;51.972;4.624;2022-10-13T22:31:16;26.05;;;15.38;;
35150;SDS011;55720;51.972;4.624;2022-10-13T22:33:42;25.13;;;15.00;;
35150;SDS011;55720;51.972;4.624;2022-10-13T22:36:08;26.92;;;15.60;;
35150;SDS011;55720;51.972;4.624;2022-10-13T22:38:37;32.42;;;15.90;;
35150;SDS011;55720;51.972;4.624;2022-10-13T22:41:03;23.23;;;14.55;;
35150;SDS011;55720;51.972;4.624;2022-10-13T22:43:29;26.33;;;15.35;;
35150;SDS011;55720;51.972;4.624;2022-10-13T22:45:54;26.15;;;15.50;;
35150;SDS011;55720;51.972;4.624;2022-10-13T22:48:19;31.35;;;16.25;;
35150;SDS011;55720;51.972;4.624;2022-10-13T22:50:45;27.85;;;16.58;;
35150;SDS011;55720;51.972;4.624;2022-10-13T22:53:10;30.20;;;17.92;;
35150;SDS011;55720;51.972;4.624;2022-10-13T22:55:39;34.30;;;17.17;;
35150;SDS011;55720;51.972;4.624;2022-10-13T22:58:05;38.30;;;18.70;;
35150;SDS011;55720;51.972;4.624;2022-10-13T23:00:34;42.95;;;19.55;;
35150;SDS011;55720;51.972;4.624;2022-10-13T23:03:00;39.08;;;19.80;;
35150;SDS011;55720;51.972;4.624;2022-10-13T23:05:26;42.65;;;20.50;;
35150;SDS011;55720;51.972;4.624;2022-10-13T23:07:51;38.60;;;20.83;;
35150;SDS011;55720;51.972;4.624;2022-10-13T23:10:16;38.80;;;20.38;;
35150;SDS011;55720;51.972;4.624;2022-10-13T23:12:42;40.17;;;19.35;;
35150;SDS011;55720;51.972;4.624;2022-10-13T23:15:07;38.10;;;19.63;;
35150;SDS011;55720;51.972;4.624;2022-10-13T23:17:33;42.85;;;20.23;;
35150;SDS011;55720;51.972;4.624;2022-10-13T23:19:59;38.88;;;19.98;;
35150;SDS011;55720;51.972;4.624;2022-10-13T23:22:24;40.30;;;21.70;;
35150;SDS011;55720;51.972;4.624;2022-10-13T23:24:49;43.60;;;20.70;;
35150;SDS011;55720;51.972;4.624;2022-10-13T23:27:15;36.75;;;20.42;;
35150;SDS011;55720;51.972;4.624;2022-10-13T23:29:40;42.15;;;20.15;;
35150;SDS011;55720;51.972;4.624;2022-10-13T23:32:06;36.63;;;20.23;;
35150;SDS011;55720;51.972;4.624;2022-10-13T23:34:31;39.20;;;21.95;;
35150;SDS011;55720;51.972;4.624;2022-10-13T23:36:57;36.50;;;20.70;;
35150;SDS011;55720;51.972;4.624;2022-10-13T23:39:22;36.17;;;21.17;;
35150;SDS011;55720;51.972;4.624;2022-10-13T23:41:47;42.22;;;22.88;;
35150;SDS011;55720;51.972;4.624;2022-10-13T23:44:13;39.03;;;21.80;;
35150;SDS011;55720;51.972;4.624;2022-10-13T23:46:38;50.33;;;23.58;;
35150;SDS011;55720;51.972;4.624;2022-10-13T23:49:04;59.17;;;27.48;;
35150;SDS011;55720;51.972;4.624;2022-10-13T23:51:29;62.50;;;30.85;;
35150;SDS011;55720;51.972;4.624;2022-10-13T23:53:55;68.97;;;32.47;;
35150;SDS011;55720;51.972;4.624;2022-10-13T23:56:20;69.57;;;32.60;;
35150;SDS011;55720;51.972;4.624;2022-10-13T23:58:46;51.58;;;26.95;;
